Terminal Aerodrome Forecast
Issued by NWS Twin Cities, MN

Home | Current Version | Previous Version | Graphics & Text | Print | Product List | Glossary On
Versions: 1 2 3 4 5 6 7 8 9 10 11 12 13 14 15 16 17 18 19 20 21 22 23 24 25
000
FTUS43 KMPX 290500
TAFEAU
TAF
KEAU 290530Z 2906/3006 21005KT P6SM BKN250
     FM290700 27004KT 4SM BR SCT060 BKN250
     FM290900 36008KT 6SM BR BKN020 OVC050
     FM291200 02010KT P6SM VCSH BKN012 OVC025
     FM292100 04008KT P6SM BKN035
     FM300000 07007KT P6SM SCT040=

USA.gov is the U.S. government's official web portal to all federal, state and local government web resources and services.